Millard, Missouri
Current Conditions -  °F | °C
As of 2:33 PM on Monday 24 Nov 2014 (Local Time) from KIRK Reporting Station
Overcast Overcast  
Wind Chill: 19°   Ceiling: 2800
Heat Index: 31°   Visibility: 10mi
Dew Point: 24°   Wind: 17mph
Humidity: 76%   Direction: 270°W
Pressure: 29.74"   Gusts: 26mph
Location:  40.149°N, 92.6667°W
Report Text: KIRK 242033Z AUTO 27015G23KT 10SM OVC028 M01/M04 A2974 RMK AO2 PK WND 28028/2001 T10061044
Loading
Personal Weather Stations






























Interactive Weather Map New forecast layout! Learn more

10-Day Weather Forecast

Advertisements
Track Severe Weather on mobile